sensor_id;sensor_type;location;lat;lon;timestamp;temperature;humidity
18131;DHT22;9191;54.324;10.126;2023-01-16T00:01:21;5.10;99.90
18131;DHT22;9191;54.324;10.126;2023-01-16T00:03:48;5.10;99.90
18131;DHT22;9191;54.324;10.126;2023-01-16T00:06:15;5.20;99.90
18131;DHT22;9191;54.324;10.126;2023-01-16T00:08:42;5.20;99.90
18131;DHT22;9191;54.324;10.126;2023-01-16T00:11:10;5.20;99.90
18131;DHT22;9191;54.324;10.126;2023-01-16T00:13:37;5.30;99.90
18131;DHT22;9191;54.324;10.126;2023-01-16T00:16:05;5.40;99.90
18131;DHT22;9191;54.324;10.126;2023-01-16T00:18:32;5.30;99.90
18131;DHT22;9191;54.324;10.126;2023-01-16T00:20:59;5.30;99.90
18131;DHT22;9191;54.324;10.126;2023-01-16T00:23:26;5.30;99.90
18131;DHT22;9191;54.324;10.126;2023-01-16T00:25:53;5.20;99.90
18131;DHT22;9191;54.324;10.126;2023-01-16T00:28:21;5.30;99.90
18131;DHT22;9191;54.324;10.126;2023-01-16T00:30:47;5.30;99.90
18131;DHT22;9191;54.324;10.126;2023-01-16T00:33:14;5.40;99.90
18131;DHT22;9191;54.324;10.126;2023-01-16T00:35:41;5.50;99.90
18131;DHT22;9191;54.324;10.126;2023-01-16T00:38:08;5.50;99.90
18131;DHT22;9191;54.324;10.126;2023-01-16T00:40:34;5.40;99.90
18131;DHT22;9191;54.324;10.126;2023-01-16T00:43:01;5.50;99.90
18131;DHT22;9191;54.324;10.126;2023-01-16T00:45:29;5.50;99.90
18131;DHT22;9191;54.324;10.126;2023-01-16T00:47:56;5.50;99.90
18131;DHT22;9191;54.324;10.126;2023-01-16T00:50:25;5.40;99.90
18131;DHT22;9191;54.324;10.126;2023-01-16T00:52:52;5.40;99.90
18131;DHT22;9191;54.324;10.126;2023-01-16T00:55:18;5.40;99.90
18131;DHT22;9191;54.324;10.126;2023-01-16T00:57:45;5.40;99.90
18131;DHT22;9191;54.324;10.126;2023-01-16T01:00:12;5.40;99.90
18131;DHT22;9191;54.324;10.126;2023-01-16T01:02:40;5.40;99.90
18131;DHT22;9191;54.324;10.126;2023-01-16T01:05:07;5.30;99.90
18131;DHT22;9191;54.324;10.126;2023-01-16T01:07:34;5.30;99.90
18131;DHT22;9191;54.324;10.126;2023-01-16T01:10:00;5.30;99.90
18131;DHT22;9191;54.324;10.126;2023-01-16T01:12:27;5.30;99.90
18131;DHT22;9191;54.324;10.126;2023-01-16T01:14:54;5.30;99.90
18131;DHT22;9191;54.324;10.126;2023-01-16T01:17:20;5.30;99.90
18131;DHT22;9191;54.324;10.126;2023-01-16T01:19:48;5.30;99.90
18131;DHT22;9191;54.324;10.126;2023-01-16T01:22:15;5.30;99.90
18131;DHT22;9191;54.324;10.126;2023-01-16T01:24:42;5.30;99.90
18131;DHT22;9191;54.324;10.126;2023-01-16T01:27:09;5.30;99.90
18131;DHT22;9191;54.324;10.126;2023-01-16T01:29:36;5.20;99.90
18131;DHT22;9191;54.324;10.126;2023-01-16T01:32:02;5.30;99.90
18131;DHT22;9191;54.324;10.126;2023-01-16T01:34:31;5.30;99.90
18131;DHT22;9191;54.324;10.126;2023-01-16T01:37:00;5.20;99.90
18131;DHT22;9191;54.324;10.126;2023-01-16T01:39:27;5.20;99.90
18131;DHT22;9191;54.324;10.126;2023-01-16T01:41:54;5.10;99.90
18131;DHT22;9191;54.324;10.126;2023-01-16T01:44:46;5.10;99.90
18131;DHT22;9191;54.324;10.126;2023-01-16T01:47:13;5.10;99.90
18131;DHT22;9191;54.324;10.126;2023-01-16T01:49:41;5.10;99.90
18131;DHT22;9191;54.324;10.126;2023-01-16T01:52:09;5.10;99.90
18131;DHT22;9191;54.324;10.126;2023-01-16T01:54:37;5.10;99.90
18131;DHT22;9191;54.324;10.126;2023-01-16T01:57:06;5.10;99.90
18131;DHT22;9191;54.324;10.126;2023-01-16T01:59:35;5.20;99.90
18131;DHT22;9191;54.324;10.126;2023-01-16T02:02:03;5.10;99.90
18131;DHT22;9191;54.324;10.126;2023-01-16T02:04:31;5.10;99.90
18131;DHT22;9191;54.324;10.126;2023-01-16T02:06:59;5.10;99.90
18131;DHT22;9191;54.324;10.126;2023-01-16T02:09:29;5.10;99.90
18131;DHT22;9191;54.324;10.126;2023-01-16T02:11:56;5.10;99.90
18131;DHT22;9191;54.324;10.126;2023-01-16T02:14:26;5.20;99.90
18131;DHT22;9191;54.324;10.126;2023-01-16T02:16:55;5.20;99.90
18131;DHT22;9191;54.324;10.126;2023-01-16T02:19:42;5.20;99.90
18131;DHT22;9191;54.324;10.126;2023-01-16T02:25:09;5.20;99.90
18131;DHT22;9191;54.324;10.126;2023-01-16T02:27:44;5.20;99.90
18131;DHT22;9191;54.324;10.126;2023-01-16T02:30:24;5.20;99.90
18131;DHT22;9191;54.324;10.126;2023-01-16T02:32:59;5.20;99.90
18131;DHT22;9191;54.324;10.126;2023-01-16T02:35:34;5.30;99.90
18131;DHT22;9191;54.324;10.126;2023-01-16T02:38:05;5.30;99.90
18131;DHT22;9191;54.324;10.126;2023-01-16T02:40:38;5.30;99.90
18131;DHT22;9191;54.324;10.126;2023-01-16T02:43:08;5.30;99.90
18131;DHT22;9191;54.324;10.126;2023-01-16T02:45:41;5.20;99.90
18131;DHT22;9191;54.324;10.126;2023-01-16T02:48:10;5.40;99.90
18131;DHT22;9191;54.324;10.126;2023-01-16T02:50:40;5.40;99.90
18131;DHT22;9191;54.324;10.126;2023-01-16T02:53:10;5.40;99.90
18131;DHT22;9191;54.324;10.126;2023-01-16T02:55:41;5.30;99.90
18131;DHT22;9191;54.324;10.126;2023-01-16T02:58:09;5.30;99.90
18131;DHT22;9191;54.324;10.126;2023-01-16T03:00:37;5.40;99.90
18131;DHT22;9191;54.324;10.126;2023-01-16T03:03:19;5.40;99.90
18131;DHT22;9191;54.324;10.126;2023-01-16T03:05:51;5.50;99.90
18131;DHT22;9191;54.324;10.126;2023-01-16T03:08:26;5.40;99.90
18131;DHT22;9191;54.324;10.126;2023-01-16T03:11:00;5.40;99.90
18131;DHT22;9191;54.324;10.126;2023-01-16T03:13:38;5.40;99.90
18131;DHT22;9191;54.324;10.126;2023-01-16T03:16:10;5.30;99.90
18131;DHT22;9191;54.324;10.126;2023-01-16T03:18:44;5.30;99.90
18131;DHT22;9191;54.324;10.126;2023-01-16T03:21:17;5.50;99.90
18131;DHT22;9191;54.324;10.126;2023-01-16T03:23:50;5.40;99.90
18131;DHT22;9191;54.324;10.126;2023-01-16T03:26:19;5.40;99.90
18131;DHT22;9191;54.324;10.126;2023-01-16T03:28:52;5.30;99.90
18131;DHT22;9191;54.324;10.126;2023-01-16T03:31:26;5.30;99.90
18131;DHT22;9191;54.324;10.126;2023-01-16T03:34:01;5.30;99.90
18131;DHT22;9191;54.324;10.126;2023-01-16T03:36:35;5.20;99.90
18131;DHT22;9191;54.324;10.126;2023-01-16T03:39:04;5.20;99.90
18131;DHT22;9191;54.324;10.126;2023-01-16T03:41:32;5.20;99.90
18131;DHT22;9191;54.324;10.126;2023-01-16T03:44:01;5.20;99.90
18131;DHT22;9191;54.324;10.126;2023-01-16T03:46:30;5.20;99.90
18131;DHT22;9191;54.324;10.126;2023-01-16T03:49:01;5.20;99.90
18131;DHT22;9191;54.324;10.126;2023-01-16T03:51:29;5.30;99.90
18131;DHT22;9191;54.324;10.126;2023-01-16T03:54:00;5.30;99.90
18131;DHT22;9191;54.324;10.126;2023-01-16T03:56:29;5.40;99.90
18131;DHT22;9191;54.324;10.126;2023-01-16T03:58:58;5.30;99.90
18131;DHT22;9191;54.324;10.126;2023-01-16T04:01:26;5.30;99.90
18131;DHT22;9191;54.324;10.126;2023-01-16T04:04:01;5.30;99.90
18131;DHT22;9191;54.324;10.126;2023-01-16T04:06:30;5.40;99.90
18131;DHT22;9191;54.324;10.126;2023-01-16T04:08:58;5.40;99.90
18131;DHT22;9191;54.324;10.126;2023-01-16T04:11:27;5.40;99.90
18131;DHT22;9191;54.324;10.126;2023-01-16T04:13:54;5.40;99.90
18131;DHT22;9191;54.324;10.126;2023-01-16T04:16:22;5.40;99.90
18131;DHT22;9191;54.324;10.126;2023-01-16T04:18:49;5.50;99.90
18131;DHT22;9191;54.324;10.126;2023-01-16T04:21:19;5.50;99.90
18131;DHT22;9191;54.324;10.126;2023-01-16T04:23:51;5.50;99.90
18131;DHT22;9191;54.324;10.126;2023-01-16T04:26:18;5.50;99.90
18131;DHT22;9191;54.324;10.126;2023-01-16T04:28:45;5.50;99.90
18131;DHT22;9191;54.324;10.126;2023-01-16T04:31:11;5.50;99.90
18131;DHT22;9191;54.324;10.126;2023-01-16T04:33:38;5.50;99.90
18131;DHT22;9191;54.324;10.126;2023-01-16T04:36:05;5.50;99.90
18131;DHT22;9191;54.324;10.126;2023-01-16T04:38:33;5.60;99.90
18131;DHT22;9191;54.324;10.126;2023-01-16T04:41:12;5.70;99.90
18131;DHT22;9191;54.324;10.126;2023-01-16T04:43:59;5.60;99.90
18131;DHT22;9191;54.324;10.126;2023-01-16T04:46:25;5.50;99.90
18131;DHT22;9191;54.324;10.126;2023-01-16T04:48:52;5.60;99.90
18131;DHT22;9191;54.324;10.126;2023-01-16T04:51:19;5.60;99.90
18131;DHT22;9191;54.324;10.126;2023-01-16T04:53:47;5.60;99.90
18131;DHT22;9191;54.324;10.126;2023-01-16T04:56:14;5.60;99.90
18131;DHT22;9191;54.324;10.126;2023-01-16T04:58:40;5.60;99.90
18131;DHT22;9191;54.324;10.126;2023-01-16T05:01:07;5.50;99.90
18131;DHT22;9191;54.324;10.126;2023-01-16T05:03:34;5.50;99.90
18131;DHT22;9191;54.324;10.126;2023-01-16T05:06:00;5.40;99.90
18131;DHT22;9191;54.324;10.126;2023-01-16T05:08:27;5.40;99.90
18131;DHT22;9191;54.324;10.126;2023-01-16T05:10:55;5.30;99.90
18131;DHT22;9191;54.324;10.126;2023-01-16T05:13:26;5.30;99.90
18131;DHT22;9191;54.324;10.126;2023-01-16T05:15:53;5.20;99.90
18131;DHT22;9191;54.324;10.126;2023-01-16T05:18:19;5.20;99.90
18131;DHT22;9191;54.324;10.126;2023-01-16T05:20:46;5.20;99.90
18131;DHT22;9191;54.324;10.126;2023-01-16T05:23:13;5.20;99.90
18131;DHT22;9191;54.324;10.126;2023-01-16T05:25:40;5.10;99.90
18131;DHT22;9191;54.324;10.126;2023-01-16T05:28:08;5.10;99.90
18131;DHT22;9191;54.324;10.126;2023-01-16T05:30:34;5.00;99.90
18131;DHT22;9191;54.324;10.126;2023-01-16T05:33:01;5.10;99.90
18131;DHT22;9191;54.324;10.126;2023-01-16T05:35:30;5.00;99.90
18131;DHT22;9191;54.324;10.126;2023-01-16T05:37:56;4.90;99.90
18131;DHT22;9191;54.324;10.126;2023-01-16T05:40:23;4.90;99.90
18131;DHT22;9191;54.324;10.126;2023-01-16T05:42:50;4.80;99.90
18131;DHT22;9191;54.324;10.126;2023-01-16T05:45:18;4.90;99.90
18131;DHT22;9191;54.324;10.126;2023-01-16T05:47:45;4.80;99.90
18131;DHT22;9191;54.324;10.126;2023-01-16T05:50:12;4.80;99.90
18131;DHT22;9191;54.324;10.126;2023-01-16T05:52:38;4.90;99.90
18131;DHT22;9191;54.324;10.126;2023-01-16T05:55:05;4.90;99.90
18131;DHT22;9191;54.324;10.126;2023-01-16T05:57:32;4.80;99.90
18131;DHT22;9191;54.324;10.126;2023-01-16T05:59:59;4.80;99.90
18131;DHT22;9191;54.324;10.126;2023-01-16T06:02:27;4.90;99.90
18131;DHT22;9191;54.324;10.126;2023-01-16T06:04:53;4.90;99.90
18131;DHT22;9191;54.324;10.126;2023-01-16T06:07:21;4.90;99.90
18131;DHT22;9191;54.324;10.126;2023-01-16T06:09:47;4.90;99.90
18131;DHT22;9191;54.324;10.126;2023-01-16T06:12:14;5.00;99.90
18131;DHT22;9191;54.324;10.126;2023-01-16T06:14:41;5.00;99.90
18131;DHT22;9191;54.324;10.126;2023-01-16T06:17:17;5.00;99.90
18131;DHT22;9191;54.324;10.126;2023-01-16T06:19:46;5.00;99.90
18131;DHT22;9191;54.324;10.126;2023-01-16T06:22:12;5.00;99.90
18131;DHT22;9191;54.324;10.126;2023-01-16T06:24:39;5.00;99.90
18131;DHT22;9191;54.324;10.126;2023-01-16T06:27:06;5.10;99.90
18131;DHT22;9191;54.324;10.126;2023-01-16T06:29:33;5.20;99.90
18131;DHT22;9191;54.324;10.126;2023-01-16T06:31:59;5.20;99.90
18131;DHT22;9191;54.324;10.126;2023-01-16T06:34:26;5.20;99.90
18131;DHT22;9191;54.324;10.126;2023-01-16T06:36:54;5.20;99.90
18131;DHT22;9191;54.324;10.126;2023-01-16T06:39:21;5.20;99.90
18131;DHT22;9191;54.324;10.126;2023-01-16T06:41:48;5.20;99.90
18131;DHT22;9191;54.324;10.126;2023-01-16T06:44:15;5.20;99.90
18131;DHT22;9191;54.324;10.126;2023-01-16T06:46:42;5.20;99.90
18131;DHT22;9191;54.324;10.126;2023-01-16T06:49:09;5.20;99.90
18131;DHT22;9191;54.324;10.126;2023-01-16T06:51:35;5.30;99.90
18131;DHT22;9191;54.324;10.126;2023-01-16T06:54:03;5.50;99.90
18131;DHT22;9191;54.324;10.126;2023-01-16T06:56:30;5.40;99.90
18131;DHT22;9191;54.324;10.126;2023-01-16T06:58:57;5.50;99.90
18131;DHT22;9191;54.324;10.126;2023-01-16T07:01:24;5.40;99.90
18131;DHT22;9191;54.324;10.126;2023-01-16T07:03:50;5.40;99.90
18131;DHT22;9191;54.324;10.126;2023-01-16T07:06:17;5.40;99.90
18131;DHT22;9191;54.324;10.126;2023-01-16T07:08:44;5.30;99.90
18131;DHT22;9191;54.324;10.126;2023-01-16T07:11:13;5.30;99.90
18131;DHT22;9191;54.324;10.126;2023-01-16T07:13:40;5.30;99.90
18131;DHT22;9191;54.324;10.126;2023-01-16T07:16:08;5.30;99.90
18131;DHT22;9191;54.324;10.126;2023-01-16T07:18:52;5.30;99.90
18131;DHT22;9191;54.324;10.126;2023-01-16T07:21:37;5.20;99.90
18131;DHT22;9191;54.324;10.126;2023-01-16T07:24:24;5.20;99.90
18131;DHT22;9191;54.324;10.126;2023-01-16T07:26:53;5.20;99.90
18131;DHT22;9191;54.324;10.126;2023-01-16T07:29:22;5.30;99.90
18131;DHT22;9191;54.324;10.126;2023-01-16T07:31:49;5.30;99.90
18131;DHT22;9191;54.324;10.126;2023-01-16T07:34:16;5.30;99.90
18131;DHT22;9191;54.324;10.126;2023-01-16T07:36:43;5.30;99.90
18131;DHT22;9191;54.324;10.126;2023-01-16T07:39:09;5.30;99.90
18131;DHT22;9191;54.324;10.126;2023-01-16T07:41:36;5.50;99.90
18131;DHT22;9191;54.324;10.126;2023-01-16T07:44:05;6.40;99.90
18131;DHT22;9191;54.324;10.126;2023-01-16T07:46:37;6.90;99.90
18131;DHT22;9191;54.324;10.126;2023-01-16T07:49:04;7.80;99.90
18131;DHT22;9191;54.324;10.126;2023-01-16T07:51:31;7.60;99.90
18131;DHT22;9191;54.324;10.126;2023-01-16T07:53:57;6.80;99.90
18131;DHT22;9191;54.324;10.126;2023-01-16T07:56:24;6.30;99.90
18131;DHT22;9191;54.324;10.126;2023-01-16T07:58:51;6.10;99.90
18131;DHT22;9191;54.324;10.126;2023-01-16T08:01:21;5.90;99.90
18131;DHT22;9191;54.324;10.126;2023-01-16T08:03:47;5.80;99.90
18131;DHT22;9191;54.324;10.126;2023-01-16T08:06:14;5.70;99.90
18131;DHT22;9191;54.324;10.126;2023-01-16T08:08:41;5.60;99.90
18131;DHT22;9191;54.324;10.126;2023-01-16T08:11:07;5.60;99.90
18131;DHT22;9191;54.324;10.126;2023-01-16T08:13:48;5.60;99.90
18131;DHT22;9191;54.324;10.126;2023-01-16T08:16:15;5.50;99.90
18131;DHT22;9191;54.324;10.126;2023-01-16T08:18:43;5.50;99.90
18131;DHT22;9191;54.324;10.126;2023-01-16T08:21:14;5.50;99.90
18131;DHT22;9191;54.324;10.126;2023-01-16T08:23:41;5.50;99.90
18131;DHT22;9191;54.324;10.126;2023-01-16T08:26:11;5.50;99.90
18131;DHT22;9191;54.324;10.126;2023-01-16T08:28:38;5.60;99.90
18131;DHT22;9191;54.324;10.126;2023-01-16T08:31:08;5.60;99.90
18131;DHT22;9191;54.324;10.126;2023-01-16T08:33:36;5.60;99.90
18131;DHT22;9191;54.324;10.126;2023-01-16T08:36:06;5.60;99.90
18131;DHT22;9191;54.324;10.126;2023-01-16T08:38:33;5.60;99.90
18131;DHT22;9191;54.324;10.126;2023-01-16T08:41:00;5.60;99.90
18131;DHT22;9191;54.324;10.126;2023-01-16T08:43:26;5.60;99.90
18131;DHT22;9191;54.324;10.126;2023-01-16T08:46:14;5.70;99.90
18131;DHT22;9191;54.324;10.126;2023-01-16T08:49:08;5.60;99.90
18131;DHT22;9191;54.324;10.126;2023-01-16T08:51:55;5.80;99.90
18131;DHT22;9191;54.324;10.126;2023-01-16T08:54:22;6.20;99.90
18131;DHT22;9191;54.324;10.126;2023-01-16T08:56:51;6.70;99.90
18131;DHT22;9191;54.324;10.126;2023-01-16T08:59:25;7.90;99.90
18131;DHT22;9191;54.324;10.126;2023-01-16T09:02:01;9.10;99.90
18131;DHT22;9191;54.324;10.126;2023-01-16T09:04:31;9.90;99.90
18131;DHT22;9191;54.324;10.126;2023-01-16T09:06:59;10.30;99.90
18131;DHT22;9191;54.324;10.126;2023-01-16T09:09:25;10.30;99.90
18131;DHT22;9191;54.324;10.126;2023-01-16T09:11:57;10.30;99.90
18131;DHT22;9191;54.324;10.126;2023-01-16T09:14:41;10.40;99.90
18131;DHT22;9191;54.324;10.126;2023-01-16T09:17:08;9.90;99.90
18131;DHT22;9191;54.324;10.126;2023-01-16T09:19:34;9.10;99.90
18131;DHT22;9191;54.324;10.126;2023-01-16T09:22:03;8.20;99.90
18131;DHT22;9191;54.324;10.126;2023-01-16T09:24:32;7.70;99.90
18131;DHT22;9191;54.324;10.126;2023-01-16T09:27:01;7.40;99.90
18131;DHT22;9191;54.324;10.126;2023-01-16T09:29:28;7.10;99.90
18131;DHT22;9191;54.324;10.126;2023-01-16T09:31:55;7.00;99.90
18131;DHT22;9191;54.324;10.126;2023-01-16T09:34:22;6.80;99.90
18131;DHT22;9191;54.324;10.126;2023-01-16T09:36:49;6.60;99.90
18131;DHT22;9191;54.324;10.126;2023-01-16T09:39:19;6.50;99.90
18131;DHT22;9191;54.324;10.126;2023-01-16T09:41:50;6.50;99.90
18131;DHT22;9191;54.324;10.126;2023-01-16T09:44:37;6.40;99.90
18131;DHT22;9191;54.324;10.126;2023-01-16T09:47:05;6.50;99.90
18131;DHT22;9191;54.324;10.126;2023-01-16T09:49:33;6.50;99.90
18131;DHT22;9191;54.324;10.126;2023-01-16T09:52:06;6.50;99.90
18131;DHT22;9191;54.324;10.126;2023-01-16T09:54:55;6.30;99.90
18131;DHT22;9191;54.324;10.126;2023-01-16T09:57:40;6.20;99.90
18131;DHT22;9191;54.324;10.126;2023-01-16T10:00:26;6.30;99.90
18131;DHT22;9191;54.324;10.126;2023-01-16T10:02:55;6.40;99.90
18131;DHT22;9191;54.324;10.126;2023-01-16T10:05:23;6.30;99.90
18131;DHT22;9191;54.324;10.126;2023-01-16T10:07:52;6.50;99.90
18131;DHT22;9191;54.324;10.126;2023-01-16T10:10:35;6.50;99.90
18131;DHT22;9191;54.324;10.126;2023-01-16T10:13:17;6.60;99.90
18131;DHT22;9191;54.324;10.126;2023-01-16T10:15:45;6.80;99.90
18131;DHT22;9191;54.324;10.126;2023-01-16T10:18:18;6.80;99.90
18131;DHT22;9191;54.324;10.126;2023-01-16T10:20:52;6.80;99.90
18131;DHT22;9191;54.324;10.126;2023-01-16T10:23:27;6.90;99.90
18131;DHT22;9191;54.324;10.126;2023-01-16T10:26:00;6.80;99.90
18131;DHT22;9191;54.324;10.126;2023-01-16T10:28:32;6.90;99.90
18131;DHT22;9191;54.324;10.126;2023-01-16T10:31:05;6.70;99.90
18131;DHT22;9191;54.324;10.126;2023-01-16T10:33:39;6.70;99.90
18131;DHT22;9191;54.324;10.126;2023-01-16T10:36:07;6.50;99.90
18131;DHT22;9191;54.324;10.126;2023-01-16T10:38:41;6.50;99.90
18131;DHT22;9191;54.324;10.126;2023-01-16T10:41:16;6.50;99.90
18131;DHT22;9191;54.324;10.126;2023-01-16T10:44:01;6.50;99.90
18131;DHT22;9191;54.324;10.126;2023-01-16T10:46:46;6.80;99.90
18131;DHT22;9191;54.324;10.126;2023-01-16T10:49:31;6.90;99.90
18131;DHT22;9191;54.324;10.126;2023-01-16T10:51:58;6.90;99.90
18131;DHT22;9191;54.324;10.126;2023-01-16T10:54:26;6.80;99.90
18131;DHT22;9191;54.324;10.126;2023-01-16T10:56:57;6.70;99.90
18131;DHT22;9191;54.324;10.126;2023-01-16T10:59:29;6.60;99.90
18131;DHT22;9191;54.324;10.126;2023-01-16T11:01:56;6.50;99.90
18131;DHT22;9191;54.324;10.126;2023-01-16T11:04:24;6.50;99.90
18131;DHT22;9191;54.324;10.126;2023-01-16T11:07:04;6.50;99.90
18131;DHT22;9191;54.324;10.126;2023-01-16T11:09:38;6.50;99.90
18131;DHT22;9191;54.324;10.126;2023-01-16T11:12:07;6.60;99.90
18131;DHT22;9191;54.324;10.126;2023-01-16T11:14:55;6.70;99.90
18131;DHT22;9191;54.324;10.126;2023-01-16T11:17:39;6.60;99.90
18131;DHT22;9191;54.324;10.126;2023-01-16T11:20:48;6.60;99.90
18131;DHT22;9191;54.324;10.126;2023-01-16T11:23:18;6.60;99.90
18131;DHT22;9191;54.324;10.126;2023-01-16T11:25:46;6.60;99.90
18131;DHT22;9191;54.324;10.126;2023-01-16T11:28:17;6.60;99.90
18131;DHT22;9191;54.324;10.126;2023-01-16T11:30:45;6.50;99.90
18131;DHT22;9191;54.324;10.126;2023-01-16T11:33:12;6.70;99.90
18131;DHT22;9191;54.324;10.126;2023-01-16T11:35:40;6.80;99.90
18131;DHT22;9191;54.324;10.126;2023-01-16T11:38:11;6.80;99.90
18131;DHT22;9191;54.324;10.126;2023-01-16T11:40:43;6.90;99.90
18131;DHT22;9191;54.324;10.126;2023-01-16T11:43:12;6.90;99.90
18131;DHT22;9191;54.324;10.126;2023-01-16T11:45:58;6.80;99.90
18131;DHT22;9191;54.324;10.126;2023-01-16T11:48:33;6.80;99.90
18131;DHT22;9191;54.324;10.126;2023-01-16T11:51:00;6.70;99.90
18131;DHT22;9191;54.324;10.126;2023-01-16T11:53:28;6.70;99.90
18131;DHT22;9191;54.324;10.126;2023-01-16T11:56:00;6.60;99.90
18131;DHT22;9191;54.324;10.126;2023-01-16T11:58:32;6.60;99.90
18131;DHT22;9191;54.324;10.126;2023-01-16T12:04:06;6.60;99.90
18131;DHT22;9191;54.324;10.126;2023-01-16T12:06:43;6.70;99.90
18131;DHT22;9191;54.324;10.126;2023-01-16T12:12:02;6.60;99.90
18131;DHT22;9191;54.324;10.126;2023-01-16T12:14:53;6.60;99.90
18131;DHT22;9191;54.324;10.126;2023-01-16T12:17:22;6.60;99.90
18131;DHT22;9191;54.324;10.126;2023-01-16T12:19:59;6.70;99.90
18131;DHT22;9191;54.324;10.126;2023-01-16T12:22:32;6.80;99.90
18131;DHT22;9191;54.324;10.126;2023-01-16T12:25:09;6.70;99.90
18131;DHT22;9191;54.324;10.126;2023-01-16T12:27:44;6.80;99.90
18131;DHT22;9191;54.324;10.126;2023-01-16T12:30:17;6.80;99.90
18131;DHT22;9191;54.324;10.126;2023-01-16T12:32:52;6.70;99.90
18131;DHT22;9191;54.324;10.126;2023-01-16T12:35:33;6.80;99.90
18131;DHT22;9191;54.324;10.126;2023-01-16T12:38:10;6.80;99.90
18131;DHT22;9191;54.324;10.126;2023-01-16T12:40:44;6.80;99.90
18131;DHT22;9191;54.324;10.126;2023-01-16T12:43:22;6.80;99.90
18131;DHT22;9191;54.324;10.126;2023-01-16T12:45:50;6.90;99.90
18131;DHT22;9191;54.324;10.126;2023-01-16T12:51:10;7.00;99.90
18131;DHT22;9191;54.324;10.126;2023-01-16T12:53:54;7.00;99.90
18131;DHT22;9191;54.324;10.126;2023-01-16T12:56:26;7.00;99.90
18131;DHT22;9191;54.324;10.126;2023-01-16T12:58:56;6.90;99.90
18131;DHT22;9191;54.324;10.126;2023-01-16T13:01:27;6.80;99.90
18131;DHT22;9191;54.324;10.126;2023-01-16T13:03:58;6.90;99.90
18131;DHT22;9191;54.324;10.126;2023-01-16T13:06:31;6.90;99.90
18131;DHT22;9191;54.324;10.126;2023-01-16T13:08:58;6.80;99.90
18131;DHT22;9191;54.324;10.126;2023-01-16T13:11:28;6.70;99.90
18131;DHT22;9191;54.324;10.126;2023-01-16T13:14:15;6.60;99.90
18131;DHT22;9191;54.324;10.126;2023-01-16T13:16:44;6.70;99.90
18131;DHT22;9191;54.324;10.126;2023-01-16T13:19:13;6.70;99.90
18131;DHT22;9191;54.324;10.126;2023-01-16T13:21:45;6.70;99.90
18131;DHT22;9191;54.324;10.126;2023-01-16T13:24:16;6.70;99.90
18131;DHT22;9191;54.324;10.126;2023-01-16T13:26:43;6.60;99.90
18131;DHT22;9191;54.324;10.126;2023-01-16T13:29:13;6.50;99.90
18131;DHT22;9191;54.324;10.126;2023-01-16T13:31:41;6.50;99.90
18131;DHT22;9191;54.324;10.126;2023-01-16T13:34:10;6.60;99.90
18131;DHT22;9191;54.324;10.126;2023-01-16T13:36:51;6.60;99.90
18131;DHT22;9191;54.324;10.126;2023-01-16T13:39:37;6.50;99.90
18131;DHT22;9191;54.324;10.126;2023-01-16T13:42:08;6.60;99.90
18131;DHT22;9191;54.324;10.126;2023-01-16T13:44:36;6.60;99.90
18131;DHT22;9191;54.324;10.126;2023-01-16T13:47:21;6.60;99.90
18131;DHT22;9191;54.324;10.126;2023-01-16T13:49:50;6.50;99.90
18131;DHT22;9191;54.324;10.126;2023-01-16T13:52:19;6.60;99.90
18131;DHT22;9191;54.324;10.126;2023-01-16T13:54:47;6.50;99.90
18131;DHT22;9191;54.324;10.126;2023-01-16T13:57:18;6.50;99.90
18131;DHT22;9191;54.324;10.126;2023-01-16T13:59:47;6.50;99.90
18131;DHT22;9191;54.324;10.126;2023-01-16T14:02:21;6.40;99.90
18131;DHT22;9191;54.324;10.126;2023-01-16T14:10:40;6.40;99.90
18131;DHT22;9191;54.324;10.126;2023-01-16T14:13:13;6.50;99.90
18131;DHT22;9191;54.324;10.126;2023-01-16T14:15:47;6.50;99.90
18131;DHT22;9191;54.324;10.126;2023-01-16T14:18:35;6.40;99.90
18131;DHT22;9191;54.324;10.126;2023-01-16T14:21:02;6.40;99.90
18131;DHT22;9191;54.324;10.126;2023-01-16T14:23:30;6.40;99.90
18131;DHT22;9191;54.324;10.126;2023-01-16T14:26:18;6.40;99.90
18131;DHT22;9191;54.324;10.126;2023-01-16T14:28:48;6.40;99.90
18131;DHT22;9191;54.324;10.126;2023-01-16T14:31:23;6.30;99.90
18131;DHT22;9191;54.324;10.126;2023-01-16T14:33:51;6.40;99.90
18131;DHT22;9191;54.324;10.126;2023-01-16T14:36:19;6.40;99.90
18131;DHT22;9191;54.324;10.126;2023-01-16T14:38:47;6.40;99.90
18131;DHT22;9191;54.324;10.126;2023-01-16T14:41:15;6.20;99.90
18131;DHT22;9191;54.324;10.126;2023-01-16T14:44:12;6.40;99.90
18131;DHT22;9191;54.324;10.126;2023-01-16T14:47:08;6.40;99.90
18131;DHT22;9191;54.324;10.126;2023-01-16T14:56:04;6.30;99.90
18131;DHT22;9191;54.324;10.126;2023-01-16T14:58:32;6.40;99.90
18131;DHT22;9191;54.324;10.126;2023-01-16T15:01:02;6.30;99.90
18131;DHT22;9191;54.324;10.126;2023-01-16T15:03:58;6.20;99.90
18131;DHT22;9191;54.324;10.126;2023-01-16T15:06:34;6.30;99.90
18131;DHT22;9191;54.324;10.126;2023-01-16T15:09:01;6.20;99.90
18131;DHT22;9191;54.324;10.126;2023-01-16T15:11:29;6.10;99.90
18131;DHT22;9191;54.324;10.126;2023-01-16T15:14:09;6.20;99.90
18131;DHT22;9191;54.324;10.126;2023-01-16T15:17:00;6.10;99.90
18131;DHT22;9191;54.324;10.126;2023-01-16T15:19:55;6.20;99.90
18131;DHT22;9191;54.324;10.126;2023-01-16T15:22:40;6.10;99.90
18131;DHT22;9191;54.324;10.126;2023-01-16T15:25:09;6.00;99.90
18131;DHT22;9191;54.324;10.126;2023-01-16T15:27:37;6.00;99.90
18131;DHT22;9191;54.324;10.126;2023-01-16T15:30:04;5.90;99.90
18131;DHT22;9191;54.324;10.126;2023-01-16T15:35:15;5.90;99.90
18131;DHT22;9191;54.324;10.126;2023-01-16T15:37:47;5.90;99.90
18131;DHT22;9191;54.324;10.126;2023-01-16T15:40:20;5.80;99.90
18131;DHT22;9191;54.324;10.126;2023-01-16T15:42:47;5.80;99.90
18131;DHT22;9191;54.324;10.126;2023-01-16T15:45:31;5.90;99.90
18131;DHT22;9191;54.324;10.126;2023-01-16T15:48:18;5.80;99.90
18131;DHT22;9191;54.324;10.126;2023-01-16T15:50:53;5.90;99.90
18131;DHT22;9191;54.324;10.126;2023-01-16T15:53:20;5.80;99.90
18131;DHT22;9191;54.324;10.126;2023-01-16T15:55:49;5.70;99.90
18131;DHT22;9191;54.324;10.126;2023-01-16T15:58:17;5.70;99.90
18131;DHT22;9191;54.324;10.126;2023-01-16T16:00:44;5.60;99.90
18131;DHT22;9191;54.324;10.126;2023-01-16T16:03:11;5.60;99.90
18131;DHT22;9191;54.324;10.126;2023-01-16T16:05:39;5.60;99.90
18131;DHT22;9191;54.324;10.126;2023-01-16T16:08:08;5.50;99.90
18131;DHT22;9191;54.324;10.126;2023-01-16T16:10:37;5.50;99.90
18131;DHT22;9191;54.324;10.126;2023-01-16T16:13:22;5.50;99.90
18131;DHT22;9191;54.324;10.126;2023-01-16T16:15:52;5.50;99.90
18131;DHT22;9191;54.324;10.126;2023-01-16T16:18:36;5.50;99.90
18131;DHT22;9191;54.324;10.126;2023-01-16T16:21:03;5.50;99.90
18131;DHT22;9191;54.324;10.126;2023-01-16T16:23:33;5.50;99.90
18131;DHT22;9191;54.324;10.126;2023-01-16T16:26:01;5.50;99.90
18131;DHT22;9191;54.324;10.126;2023-01-16T16:28:28;5.50;99.90
18131;DHT22;9191;54.324;10.126;2023-01-16T16:31:01;5.50;99.90
18131;DHT22;9191;54.324;10.126;2023-01-16T16:33:29;5.50;99.90
18131;DHT22;9191;54.324;10.126;2023-01-16T16:35:57;5.40;99.90